Bloom City, Wisconsin
Current Conditions -  °F | °C
As of 5:35 AM on Friday 24 Oct 2014 (Local Time) from KC35 Reporting Station
Haze Haze  
Wind Chill: 46°   Ceiling: 300
Heat Index: 46°   Visibility: 1.7mi
Dew Point: 46°   Wind: 3mph
Humidity: 100%   Direction: 230°SW
Pressure: 30.04"   Gusts: NA
Location:  43.6121°N, 90.3998°W
Report Text: KC35 241035Z AUTO 23003KT 1 3/4SM BR OVC003 08/08 A3004 RMK AO2 T00770077
Loading
Personal Weather Stations






























Interactive Weather Map New forecast layout! Learn more

10-Day Weather Forecast

Advertisements
Track Severe Weather on mobile